This is the latest recevied weather packets stored in our database for station/object TONGUE. If no packets are shown the sender has not sent any weather packets the latest 10 day(s).
| Time | Temp. | Humidity | Pressure | Rain* | Wind** | Luminosity | Snow |
|---|---|---|---|---|---|---|---|
| 1788561603 | 19.44° C | 64% | 0 hPa | - | - | - | - |
| 1788561003 | 20° C | 59% | 0 hPa | - | - | - | - |
| 1788560403 | 18.89° C | 64% | 0 hPa | - | - | - | - |
| 1788559804 | 19.44° C | 65% | 0 hPa | - | - | - | - |
| 1788559204 | 19.44° C | 66% | 0 hPa | - | - | - | - |
| 1788558602 | 20° C | 64% | 0 hPa | - | - | - | - |
| 1788558003 | 18.89° C | 69% | 0 hPa | - | - | - | - |
| 1788557403 | 18.89° C | 69% | 0 hPa | - | - | - | - |
| 1788556803 | 18.89° C | 66% | 0 hPa | - | - | - | - |
| 1788556203 | 18.89° C | 67% | 0 hPa | - | - | - | - |
| 1788555603 | 19.44° C | 66% | 0 hPa | - | - | - | - |
| 1788555002 | 19.44° C | 67% | 0 hPa | - | - | - | - |
| 1788554408 | 18.89° C | 70% | 0 hPa | - | - | - | - |
| 1788553803 | 18.33° C | 71% | 0 hPa | - | - | - | - |
| 1788553203 | 17.78° C | 73% | 0 hPa | - | - | - | - |
| 1788552603 | 17.78° C | 74% | 0 hPa | - | - | - | - |
| 1788552003 | 18.33° C | 74% | 0 hPa | - | - | - | - |
| 1788551402 | 18.89° C | 71% | 0 hPa | - | - | - | - |
| 1788550802 | 18.89° C | 76% | 0 hPa | - | - | - | - |
| 1788550203 | 18.33° C | 74% | 0 hPa | - | - | - | - |
| 1788549603 | 17.78° C | 73% | 0 hPa | - | - | - | - |
| 1788549003 | 17.22° C | 76% | 0 hPa | - | - | - | - |
| 1788548404 | 16.67° C | 77% | 0 hPa | - | - | - | - |
| 1788547802 | 16.67° C | 76% | 0 hPa | - | - | - | - |
| 1788547202 | 16.67° C | 79% | 0 hPa | - | - | - | - |
* Rain since midnight (hover to see other rain measurements)
** Current wind speed in m/s (hover to see current wind gust speed)